createdAt,value
2023-06-03T00:01:08.393Z,17.07
2023-06-03T00:03:38.389Z,15.60
2023-06-03T00:06:07.316Z,14.90
2023-06-03T00:08:35.653Z,15.13
2023-06-03T00:11:04.159Z,14.90
2023-06-03T00:13:32.741Z,17.77
2023-06-03T00:16:01.080Z,20.57
2023-06-03T00:18:29.433Z,21.27
2023-06-03T00:20:59.099Z,16.60
2023-06-03T00:23:27.933Z,15.23
2023-06-03T00:25:56.603Z,18.07
2023-06-03T00:28:24.929Z,14.93
2023-06-03T00:30:53.201Z,16.17
2023-06-03T00:33:21.598Z,17.40
2023-06-03T00:35:49.950Z,18.37
2023-06-03T00:38:19.703Z,20.90
2023-06-03T00:40:47.960Z,17.60
2023-06-03T00:43:16.252Z,15.87
2023-06-03T00:45:44.615Z,19.47
2023-06-03T00:48:13.467Z,18.03
2023-06-03T00:50:42.279Z,16.37
2023-06-03T00:53:10.740Z,16.73
2023-06-03T00:55:42.043Z,12.77
2023-06-03T00:58:10.843Z,16.20
2023-06-03T01:00:39.812Z,16.27
2023-06-03T01:03:14.421Z,18.47
2023-06-03T01:05:43.583Z,16.70
2023-06-03T01:08:21.502Z,16.30
2023-06-03T01:11:00.881Z,15.70
2023-06-03T01:13:35.818Z,17.20
2023-06-03T01:16:06.457Z,15.10
2023-06-03T01:18:38.129Z,15.30
2023-06-03T01:21:08.636Z,16.90
2023-06-03T01:23:38.355Z,18.00
2023-06-03T01:26:06.719Z,15.43
2023-06-03T01:28:36.471Z,16.60
2023-06-03T01:31:06.675Z,16.80
2023-06-03T01:33:36.552Z,15.93
2023-06-03T01:36:07.295Z,15.80
2023-06-03T01:38:36.205Z,16.10
2023-06-03T01:41:06.622Z,16.70
2023-06-03T01:43:35.342Z,15.07
2023-06-03T01:46:04.068Z,14.53
2023-06-03T01:48:32.666Z,18.83
2023-06-03T01:51:00.962Z,15.50
2023-06-03T01:53:30.066Z,14.43
2023-06-03T01:55:59.180Z,14.90
2023-06-03T01:58:29.443Z,16.17
2023-06-03T02:00:57.722Z,20.03
2023-06-03T02:03:26.239Z,16.10
2023-06-03T02:05:54.598Z,13.47
2023-06-03T02:08:22.921Z,16.37
2023-06-03T02:10:51.247Z,14.80
2023-06-03T02:13:19.464Z,16.90
2023-06-03T02:15:49.094Z,17.90
2023-06-03T02:18:19.158Z,15.57
2023-06-03T02:20:49.530Z,16.70
2023-06-03T02:23:17.959Z,13.50
2023-06-03T02:25:46.971Z,16.10
2023-06-03T02:28:17.678Z,17.97
2023-06-03T02:30:46.002Z,14.73
2023-06-03T02:33:15.980Z,18.50
2023-06-03T02:35:45.954Z,15.20
2023-06-03T02:38:14.324Z,15.90
2023-06-03T02:40:42.801Z,17.27
2023-06-03T02:43:11.307Z,17.70
2023-06-03T02:45:39.711Z,15.87
2023-06-03T02:48:08.046Z,16.47
2023-06-03T02:50:37.972Z,16.67
2023-06-03T02:53:06.638Z,18.17
2023-06-03T02:55:35.665Z,14.47
2023-06-03T02:58:04.011Z,15.57
2023-06-03T03:00:32.501Z,16.03
2023-06-03T03:03:01.885Z,18.10
2023-06-03T03:05:31.834Z,18.27
2023-06-03T03:08:01.663Z,17.20
2023-06-03T03:10:30.267Z,15.87
2023-06-03T03:12:58.846Z,15.90
2023-06-03T03:15:27.990Z,13.93
2023-06-03T03:17:56.969Z,18.27
2023-06-03T03:20:30.130Z,15.87
2023-06-03T03:22:58.551Z,17.70
2023-06-03T03:25:29.013Z,18.43
2023-06-03T03:27:58.131Z,15.73
2023-06-03T03:30:26.629Z,17.73
2023-06-03T03:32:55.138Z,17.40
2023-06-03T03:35:24.056Z,16.40
2023-06-03T03:38:02.155Z,15.47
2023-06-03T03:40:34.136Z,18.20
2023-06-03T03:43:04.086Z,16.20
2023-06-03T03:45:36.402Z,18.43
2023-06-03T03:48:07.704Z,15.83
2023-06-03T03:50:46.962Z,17.90
2023-06-03T03:53:23.036Z,17.43
2023-06-03T03:55:54.533Z,14.53
2023-06-03T03:58:29.458Z,16.70
2023-06-03T04:01:02.698Z,19.03
2023-06-03T04:03:41.288Z,20.20
2023-06-03T04:06:10.541Z,20.10
2023-06-03T04:08:41.655Z,18.13
2023-06-03T04:11:18.841Z,15.57
2023-06-03T04:13:47.220Z,16.60
2023-06-03T04:16:53.515Z,17.57
2023-06-03T04:19:31.838Z,19.87
2023-06-03T04:22:01.986Z,18.93
2023-06-03T04:24:31.028Z,19.60
2023-06-03T04:27:03.979Z,23.10
2023-06-03T04:29:33.440Z,16.07
2023-06-03T04:32:01.840Z,22.20
2023-06-03T04:34:31.651Z,16.20
2023-06-03T04:37:02.781Z,16.63
2023-06-03T04:39:31.257Z,19.90
2023-06-03T04:42:03.546Z,19.40
2023-06-03T04:44:32.880Z,19.57
2023-06-03T04:47:02.122Z,21.30
2023-06-03T04:49:33.495Z,19.87
2023-06-03T04:52:03.289Z,20.20
2023-06-03T04:54:31.946Z,20.40
2023-06-03T04:57:02.086Z,20.43
2023-06-03T04:59:31.401Z,21.33
2023-06-03T05:02:01.441Z,19.27
2023-06-03T05:04:31.224Z,19.63
2023-06-03T05:07:02.806Z,20.13
2023-06-03T05:09:31.597Z,19.80
2023-06-03T05:12:02.237Z,22.53
2023-06-03T05:14:32.580Z,22.47
2023-06-03T05:17:01.058Z,22.80
2023-06-03T05:19:30.976Z,20.70
2023-06-03T05:22:02.004Z,21.23
2023-06-03T05:24:31.425Z,20.83
2023-06-03T05:27:04.763Z,22.80
2023-06-03T05:29:34.055Z,21.57
2023-06-03T05:32:02.395Z,24.07
2023-06-03T05:34:30.823Z,25.87
2023-06-03T05:36:59.110Z,25.43
2023-06-03T05:39:27.410Z,25.70
2023-06-03T05:41:56.865Z,27.30
2023-06-03T05:44:28.983Z,24.43
2023-06-03T05:52:12.092Z,24.13
2023-06-03T05:55:01.043Z,23.73
2023-06-03T05:57:42.114Z,26.30
2023-06-03T06:00:31.297Z,25.17
2023-06-03T06:03:21.677Z,28.90
2023-06-03T06:06:05.548Z,25.80
2023-06-03T06:09:33.821Z,29.07
2023-06-03T06:12:52.649Z,28.43
2023-06-03T06:15:56.329Z,29.40
2023-06-03T06:18:45.446Z,31.23
2023-06-03T06:21:54.444Z,28.70
2023-06-03T06:24:34.778Z,25.83
2023-06-03T06:27:34.007Z,28.90
2023-06-03T06:34:44.378Z,26.97
2023-06-03T06:36:43.965Z,25.90
2023-06-03T06:37:33.685Z,26.30
2023-06-03T06:40:13.370Z,25.33
2023-06-03T06:43:30.163Z,26.47
2023-06-03T06:46:13.307Z,24.27
2023-06-03T06:48:42.135Z,23.07
2023-06-03T06:51:13.722Z,25.87
2023-06-03T06:53:43.694Z,26.00
2023-06-03T06:56:17.356Z,28.20
2023-06-03T06:58:53.876Z,25.27
2023-06-03T07:01:23.255Z,23.83
2023-06-03T07:03:55.356Z,22.63
2023-06-03T07:06:25.578Z,26.20
2023-06-03T07:08:59.346Z,26.27
2023-06-03T07:11:29.192Z,25.07
2023-06-03T07:14:03.457Z,26.73
2023-06-03T07:16:32.179Z,25.37
2023-06-03T07:19:01.121Z,23.50
2023-06-03T07:22:10.036Z,26.97
2023-06-03T07:24:41.851Z,22.10
2023-06-03T07:27:16.174Z,21.00
2023-06-03T07:31:37.363Z,20.50
2023-06-03T07:37:27.395Z,19.80
2023-06-03T07:39:12.773Z,18.60
2023-06-03T07:53:44.806Z,21.90
2023-06-03T07:54:24.131Z,19.50
2023-06-03T07:57:16.692Z,20.10
2023-06-03T08:04:39.181Z,19.40
2023-06-03T08:07:26.487Z,16.83
2023-06-03T08:10:07.796Z,18.03
2023-06-03T08:13:13.874Z,16.87
2023-06-03T08:33:30.698Z,16.80
2023-06-03T08:45:15.889Z,16.40
2023-06-03T10:17:37.555Z,18.77
2023-06-03T10:31:45.813Z,14.82
2023-06-03T17:10:07.521Z,8.90
2023-06-03T17:12:29.051Z,9.67
2023-06-03T17:15:03.790Z,10.87
2023-06-03T17:17:33.028Z,11.63
2023-06-03T17:20:08.766Z,8.90
2023-06-03T17:22:42.637Z,9.73
2023-06-03T17:57:17.428Z,16.60
2023-06-03T18:05:34.792Z,12.00
2023-06-03T18:08:36.867Z,14.63
2023-06-03T18:11:32.606Z,14.00
2023-06-03T18:19:32.348Z,13.33
2023-06-03T18:22:08.608Z,15.73
2023-06-03T18:24:45.891Z,14.40
2023-06-03T18:27:27.740Z,16.90
2023-06-03T18:30:14.981Z,16.73
2023-06-03T18:37:01.965Z,13.03
2023-06-03T18:39:33.064Z,15.33
2023-06-03T18:42:03.072Z,15.47
2023-06-03T18:44:31.763Z,14.40
2023-06-03T18:47:00.635Z,15.77
2023-06-03T18:49:29.616Z,18.17
2023-06-03T18:52:22.520Z,13.53
2023-06-03T18:55:08.215Z,13.53
2023-06-03T18:57:47.702Z,17.47
2023-06-03T19:00:29.196Z,13.93
2023-06-03T19:03:17.909Z,13.30
2023-06-03T19:05:58.849Z,13.83
2023-06-03T19:08:29.708Z,14.30
2023-06-03T19:12:15.950Z,13.30
2023-06-03T19:15:30.690Z,15.17
2023-06-03T19:17:59.537Z,13.53
2023-06-03T19:20:28.237Z,14.57
2023-06-03T19:22:57.932Z,13.47
2023-06-03T19:25:26.493Z,14.13
2023-06-03T19:27:56.101Z,13.23
2023-06-03T19:30:24.843Z,13.60
2023-06-03T19:32:55.358Z,12.97
2023-06-03T19:35:24.253Z,14.27
2023-06-03T19:37:52.894Z,12.40
2023-06-03T19:40:21.589Z,12.90
2023-06-03T19:42:50.194Z,11.37
2023-06-03T19:45:20.712Z,13.03
2023-06-03T19:47:51.335Z,12.80
2023-06-03T19:50:21.457Z,14.17
2023-06-03T19:52:55.681Z,12.97
2023-06-03T19:55:25.282Z,13.37
2023-06-03T19:57:53.869Z,12.47
2023-06-03T20:00:22.754Z,11.90
2023-06-03T20:02:51.449Z,12.93
2023-06-03T20:05:21.528Z,13.10
2023-06-03T20:07:51.212Z,11.90
2023-06-03T20:10:19.944Z,10.73
2023-06-03T20:12:48.516Z,10.37
2023-06-03T20:15:17.234Z,13.43
2023-06-03T20:17:46.380Z,13.37
2023-06-03T20:20:17.779Z,9.53
2023-06-03T20:22:47.760Z,14.93
2023-06-03T20:25:17.806Z,11.63
2023-06-03T20:27:46.356Z,11.73
2023-06-03T20:30:14.979Z,10.70
2023-06-03T20:32:43.794Z,12.53
2023-06-03T20:35:12.405Z,14.40
2023-06-03T20:37:40.856Z,12.80
2023-06-03T20:40:12.536Z,12.50
2023-06-03T20:42:41.056Z,11.40
2023-06-03T20:45:10.540Z,13.30
2023-06-03T20:47:39.343Z,10.47
2023-06-03T20:50:08.617Z,12.40
2023-06-03T20:52:37.121Z,10.87
2023-06-03T20:55:06.477Z,12.53
2023-06-03T20:57:36.388Z,10.67
2023-06-03T21:00:05.925Z,10.50
2023-06-03T21:02:34.760Z,9.67
2023-06-03T21:05:03.559Z,12.60
2023-06-03T21:07:31.984Z,10.70
2023-06-03T21:10:00.518Z,11.37
2023-06-03T21:12:29.089Z,9.63
2023-06-03T21:14:59.063Z,11.07
2023-06-03T21:17:27.618Z,12.23
2023-06-03T21:19:56.141Z,10.83
2023-06-03T21:22:24.596Z,9.17
2023-06-03T21:24:53.075Z,9.57
2023-06-03T21:27:22.246Z,10.10
2023-06-03T21:29:50.680Z,12.10
2023-06-03T21:32:20.512Z,12.27
2023-06-03T21:34:48.965Z,10.50
2023-06-03T21:37:17.246Z,12.27
2023-06-03T21:39:45.534Z,13.97
2023-06-03T21:42:13.844Z,10.73
2023-06-03T21:44:42.128Z,12.00
2023-06-03T21:47:10.904Z,8.97
2023-06-03T21:49:41.157Z,9.90
2023-06-03T21:52:09.454Z,12.63
2023-06-03T21:54:42.102Z,11.23
2023-06-03T21:57:11.438Z,10.30
2023-06-03T21:59:40.514Z,11.00
2023-06-03T22:02:09.515Z,9.53
2023-06-03T22:04:38.689Z,11.03
2023-06-03T22:07:09.101Z,12.33
2023-06-03T22:09:37.359Z,10.97
2023-06-03T22:12:06.819Z,11.57
2023-06-03T22:14:35.824Z,12.50
2023-06-03T22:17:04.138Z,11.50
2023-06-03T22:19:33.240Z,10.20
2023-06-03T22:22:01.565Z,12.70
2023-06-03T22:24:31.340Z,12.73
2023-06-03T22:26:59.669Z,12.30
2023-06-03T22:29:28.025Z,11.47
2023-06-03T22:31:56.493Z,10.20
2023-06-03T22:34:24.961Z,9.33
2023-06-03T22:36:53.321Z,11.70
2023-06-03T22:39:21.714Z,10.37
2023-06-03T22:41:52.116Z,11.80
2023-06-03T22:44:20.917Z,11.40
2023-06-03T22:46:49.252Z,9.77
2023-06-03T22:49:19.372Z,8.80
2023-06-03T22:51:47.913Z,10.00
2023-06-03T22:54:16.458Z,12.37
2023-06-03T22:56:44.762Z,11.53
2023-06-03T22:59:14.461Z,10.37
2023-06-03T23:01:42.874Z,11.43
2023-06-03T23:04:11.534Z,9.57
2023-06-03T23:06:39.911Z,9.87
2023-06-03T23:09:08.380Z,12.63
2023-06-03T23:11:37.642Z,10.63
2023-06-03T23:14:05.958Z,10.60
2023-06-03T23:16:35.659Z,12.43
2023-06-03T23:19:04.073Z,9.37
2023-06-03T23:21:32.389Z,11.33
2023-06-03T23:24:01.333Z,9.87
2023-06-03T23:26:29.694Z,12.37
2023-06-03T23:28:58.002Z,8.10
2023-06-03T23:31:26.291Z,9.67
2023-06-03T23:33:56.049Z,10.33
2023-06-03T23:36:24.583Z,10.20
2023-06-03T23:38:53.004Z,11.63
2023-06-03T23:41:21.332Z,12.97
2023-06-03T23:43:52.477Z,11.77
2023-06-03T23:46:20.887Z,11.67
2023-06-03T23:48:49.635Z,12.07
2023-06-03T23:51:22.373Z,10.03
2023-06-03T23:53:50.724Z,13.07
2023-06-03T23:56:19.299Z,10.37
2023-06-03T23:58:47.641Z,8.70
